createdAt,value
2023-05-20T00:00:24.154Z,82.68
2023-05-20T00:01:46.899Z,82.87
2023-05-20T00:02:49.697Z,82.89
2023-05-20T00:03:52.887Z,82.77
2023-05-20T00:04:55.882Z,83.05
2023-05-20T00:05:58.657Z,83.06
2023-05-20T00:07:01.437Z,83.17
2023-05-20T00:08:07.354Z,83.28
2023-05-20T00:09:10.911Z,83.09
2023-05-20T00:10:13.804Z,83.05
2023-05-20T00:11:16.616Z,83.40
2023-05-20T00:12:19.405Z,83.13
2023-05-20T00:13:22.445Z,83.24
2023-05-20T00:14:25.409Z,82.69
2023-05-20T00:15:28.280Z,83.57
2023-05-20T00:16:31.033Z,83.18
2023-05-20T00:17:33.840Z,83.19
2023-05-20T00:18:36.565Z,83.24
2023-05-20T00:19:39.523Z,83.55
2023-05-20T00:20:42.240Z,83.27
2023-05-20T00:21:45.005Z,83.42
2023-05-20T00:22:47.733Z,83.62
2023-05-20T00:23:50.842Z,83.41
2023-05-20T00:24:53.919Z,83.72
2023-05-20T00:25:58.451Z,83.52
2023-05-20T00:27:03.485Z,83.46
2023-05-20T00:28:06.606Z,83.91
2023-05-20T00:29:10.337Z,83.77
2023-05-20T00:30:13.391Z,83.91
2023-05-20T00:31:16.125Z,84.09
2023-05-20T00:32:18.923Z,84.16
2023-05-20T00:33:21.651Z,83.88
2023-05-20T00:34:24.509Z,83.79
2023-05-20T00:35:27.447Z,84.10
2023-05-20T00:36:31.325Z,84.01
2023-05-20T00:37:34.085Z,83.87
2023-05-20T00:38:36.844Z,84.10
2023-05-20T00:39:39.688Z,84.05
2023-05-20T00:40:42.520Z,84.17
2023-05-20T00:41:45.380Z,84.31
2023-05-20T00:42:48.050Z,84.16
2023-05-20T00:43:54.772Z,84.47
2023-05-20T00:44:58.082Z,84.42
2023-05-20T00:46:01.868Z,84.72
2023-05-20T00:47:04.735Z,84.40
2023-05-20T00:48:07.988Z,84.57
2023-05-20T00:49:10.935Z,84.57
2023-05-20T00:50:13.949Z,84.64
2023-05-20T00:51:17.045Z,84.48
2023-05-20T00:52:19.827Z,84.60
2023-05-20T00:53:22.951Z,84.38
2023-05-20T00:54:25.868Z,84.77
2023-05-20T00:55:28.857Z,84.85
2023-05-20T00:56:31.835Z,84.35
2023-05-20T00:57:34.646Z,84.60
2023-05-20T00:58:38.093Z,84.58
2023-05-20T00:59:42.869Z,84.86
2023-05-20T01:00:47.661Z,84.70
2023-05-20T01:01:50.684Z,84.73
2023-05-20T01:02:55.492Z,84.73
2023-05-20T01:03:59.212Z,84.79
2023-05-20T01:05:02.275Z,84.92
2023-05-20T01:06:05.421Z,84.90
2023-05-20T01:07:08.191Z,85.10
2023-05-20T01:08:10.958Z,84.85
2023-05-20T01:09:13.762Z,84.91
2023-05-20T01:10:16.646Z,85.00
2023-05-20T01:11:19.396Z,84.95
2023-05-20T01:12:30.476Z,85.03
2023-05-20T01:13:39.221Z,84.78
2023-05-20T01:14:57.236Z,84.91
2023-05-20T01:16:01.513Z,84.90
2023-05-20T01:17:09.705Z,85.02
2023-05-20T01:18:18.534Z,85.01
2023-05-20T01:19:34.066Z,84.76
2023-05-20T01:20:37.914Z,84.77
2023-05-20T01:21:41.473Z,84.68
2023-05-20T01:22:49.112Z,84.79
2023-05-20T01:23:52.393Z,84.96
2023-05-20T01:24:55.439Z,85.00
2023-05-20T01:25:58.233Z,84.46
2023-05-20T01:27:00.967Z,84.53
2023-05-20T01:28:04.008Z,84.56
2023-05-20T01:29:06.720Z,84.64
2023-05-20T01:30:09.890Z,84.53
2023-05-20T01:31:33.797Z,84.54
2023-05-20T01:32:41.365Z,84.48
2023-05-20T01:33:44.971Z,84.57
2023-05-20T01:34:49.961Z,84.68
2023-05-20T01:35:53.158Z,84.24
2023-05-20T01:36:56.375Z,84.35
2023-05-20T01:38:00.183Z,83.95
2023-05-20T01:39:03.504Z,84.29
2023-05-20T01:40:14.059Z,84.24
2023-05-20T01:41:17.374Z,83.91
2023-05-20T01:42:21.058Z,84.04
2023-05-20T01:43:24.624Z,83.83
2023-05-20T01:44:27.561Z,83.87
2023-05-20T01:45:31.288Z,84.07
2023-05-20T01:46:35.466Z,83.87
2023-05-20T01:47:38.698Z,83.69
2023-05-20T01:48:41.454Z,83.66
2023-05-20T01:49:46.366Z,83.07
2023-05-20T01:50:49.194Z,83.12
2023-05-20T01:51:52.942Z,83.09
2023-05-20T01:52:55.670Z,83.38
2023-05-20T01:53:58.715Z,83.32
2023-05-20T01:55:01.520Z,83.43
2023-05-20T01:56:05.438Z,83.12
2023-05-20T01:57:08.244Z,82.98
2023-05-20T01:58:11.071Z,82.91
2023-05-20T01:59:14.119Z,82.82
2023-05-20T02:00:17.070Z,83.04
2023-05-20T02:01:20.953Z,83.00
2023-05-20T02:02:23.938Z,82.73
2023-05-20T02:03:26.994Z,82.79
2023-05-20T02:04:30.797Z,82.69
2023-05-20T02:05:33.959Z,82.69
2023-05-20T02:06:37.066Z,82.64
2023-05-20T02:07:39.874Z,82.52
2023-05-20T02:08:42.604Z,82.58
2023-05-20T02:09:45.850Z,82.53
2023-05-20T02:10:49.395Z,82.57
2023-05-20T02:11:52.085Z,82.56
2023-05-20T02:12:54.785Z,82.52
2023-05-20T02:13:57.501Z,82.61
2023-05-20T02:15:00.390Z,82.44
2023-05-20T02:16:03.325Z,82.62
2023-05-20T02:17:06.041Z,82.14
2023-05-20T02:18:08.892Z,82.38
2023-05-20T02:19:12.889Z,82.23
2023-05-20T02:20:16.350Z,82.10
2023-05-20T02:21:19.140Z,82.29
2023-05-20T02:22:21.820Z,82.09
2023-05-20T02:23:24.552Z,82.17
2023-05-20T02:24:27.402Z,81.94
2023-05-20T02:25:30.104Z,82.06
2023-05-20T02:26:33.075Z,81.86
2023-05-20T02:27:37.036Z,81.92
2023-05-20T02:28:43.619Z,82.20
2023-05-20T02:29:46.501Z,81.97
2023-05-20T02:30:51.733Z,81.88
2023-05-20T02:31:54.440Z,81.99
2023-05-20T02:32:57.944Z,82.09
2023-05-20T02:34:01.202Z,81.92
2023-05-20T02:35:05.037Z,82.01
2023-05-20T02:36:08.115Z,81.80
2023-05-20T02:37:10.953Z,81.80
2023-05-20T02:38:13.762Z,81.97
2023-05-20T02:39:17.008Z,81.81
2023-05-20T02:40:19.791Z,81.47
2023-05-20T02:41:23.202Z,81.67
2023-05-20T02:42:26.004Z,81.85
2023-05-20T02:43:28.688Z,81.74
2023-05-20T02:44:31.519Z,81.51
2023-05-20T02:45:34.659Z,81.83
2023-05-20T02:46:37.536Z,81.39
2023-05-20T02:47:41.303Z,81.58
2023-05-20T02:48:44.081Z,81.55
2023-05-20T02:49:47.139Z,81.57
2023-05-20T02:50:49.919Z,81.07
2023-05-20T02:51:52.718Z,81.27
2023-05-20T02:52:55.916Z,81.37
2023-05-20T02:53:58.999Z,81.27
2023-05-20T02:55:02.098Z,81.04
2023-05-20T02:56:05.856Z,81.11
2023-05-20T02:57:08.679Z,81.01
2023-05-20T02:58:13.370Z,81.34
2023-05-20T02:59:16.267Z,81.27
2023-05-20T03:00:19.238Z,81.14
2023-05-20T03:01:22.021Z,81.18
2023-05-20T03:02:25.395Z,81.17
2023-05-20T03:03:28.349Z,81.20
2023-05-20T03:04:31.749Z,81.22
2023-05-20T03:05:37.982Z,81.53
2023-05-20T03:06:44.408Z,81.50
2023-05-20T03:07:48.902Z,81.32
2023-05-20T03:08:51.726Z,81.20
2023-05-20T03:09:54.445Z,81.29
2023-05-20T03:10:57.288Z,81.65
2023-05-20T03:12:00.045Z,81.16
2023-05-20T03:13:03.117Z,81.11
2023-05-20T03:14:05.866Z,81.23
2023-05-20T03:15:09.447Z,81.43
2023-05-20T03:16:13.245Z,81.35
2023-05-20T03:17:16.172Z,81.30
2023-05-20T03:18:19.206Z,81.37
2023-05-20T03:19:22.199Z,81.21
2023-05-20T03:20:27.053Z,81.13
2023-05-20T03:21:30.702Z,81.20
2023-05-20T03:22:33.635Z,81.31
2023-05-20T03:23:36.385Z,81.15
2023-05-20T03:24:39.133Z,81.08
2023-05-20T03:25:42.718Z,81.08
2023-05-20T03:26:46.550Z,81.06
2023-05-20T03:27:49.428Z,81.18
2023-05-20T03:28:52.376Z,80.99
2023-05-20T03:29:55.219Z,81.23
2023-05-20T03:30:58.203Z,81.20
2023-05-20T03:32:01.144Z,81.31
2023-05-20T03:33:05.914Z,81.01
2023-05-20T03:34:08.798Z,81.05
2023-05-20T03:35:12.031Z,80.88
2023-05-20T03:36:14.786Z,81.05
2023-05-20T03:37:17.715Z,81.20
2023-05-20T03:38:20.628Z,80.98
2023-05-20T03:39:23.390Z,80.97
2023-05-20T03:40:26.203Z,80.88
2023-05-20T03:41:29.257Z,80.83
2023-05-20T03:42:35.257Z,80.79
2023-05-20T03:43:37.957Z,80.78
2023-05-20T03:44:41.602Z,80.86
2023-05-20T03:45:44.462Z,80.88
2023-05-20T03:46:47.230Z,80.61
2023-05-20T03:47:50.508Z,80.76
2023-05-20T03:48:53.475Z,80.78
2023-05-20T03:49:56.324Z,80.94
2023-05-20T03:50:59.503Z,80.85
2023-05-20T03:52:03.522Z,80.71
2023-05-20T03:53:06.591Z,81.07
2023-05-20T03:54:13.827Z,80.93
2023-05-20T03:55:17.117Z,80.95
2023-05-20T03:56:19.973Z,80.86
2023-05-20T03:57:23.085Z,80.98
2023-05-20T03:58:26.393Z,80.91
2023-05-20T03:59:29.499Z,81.00
2023-05-20T04:00:32.290Z,81.10
2023-05-20T04:01:35.874Z,80.99
2023-05-20T04:02:38.907Z,81.03
2023-05-20T04:03:42.686Z,81.04
2023-05-20T04:04:45.631Z,81.08
2023-05-20T04:05:49.574Z,80.90
2023-05-20T04:06:56.282Z,80.97
2023-05-20T04:08:00.485Z,81.05
2023-05-20T04:09:03.991Z,81.15
2023-05-20T04:10:08.482Z,81.10
2023-05-20T04:11:11.393Z,80.99
2023-05-20T04:12:14.189Z,81.21
2023-05-20T04:13:17.310Z,81.32
2023-05-20T04:14:20.146Z,81.23
2023-05-20T04:15:24.018Z,81.11
2023-05-20T04:16:31.104Z,81.15
2023-05-20T04:17:34.022Z,81.16
2023-05-20T04:18:39.178Z,81.13
2023-05-20T04:19:42.697Z,81.05
2023-05-20T04:20:46.489Z,81.11
2023-05-20T04:21:49.903Z,80.92
2023-05-20T04:22:54.078Z,81.28
2023-05-20T04:23:57.345Z,81.18
2023-05-20T04:25:00.893Z,81.27
2023-05-20T04:26:03.811Z,81.21
2023-05-20T04:27:08.074Z,81.43
2023-05-20T04:28:14.126Z,81.29
2023-05-20T04:29:16.887Z,81.14
2023-05-20T04:30:21.753Z,81.13
2023-05-20T04:31:27.007Z,80.95
2023-05-20T04:32:30.314Z,80.80
2023-05-20T04:33:37.942Z,80.95
2023-05-20T04:34:40.939Z,80.77
2023-05-20T04:35:44.319Z,80.48
2023-05-20T04:36:47.232Z,80.71
2023-05-20T04:37:50.822Z,80.77
2023-05-20T04:38:53.974Z,80.48
2023-05-20T04:39:56.894Z,80.34
2023-05-20T04:40:59.883Z,80.13
2023-05-20T04:42:03.513Z,80.08
2023-05-20T04:43:06.282Z,79.95
2023-05-20T04:44:09.600Z,80.04
2023-05-20T04:45:12.538Z,80.13
2023-05-20T04:46:16.610Z,80.00
2023-05-20T04:47:19.418Z,79.93
2023-05-20T04:48:22.429Z,80.12
2023-05-20T04:49:29.118Z,80.08
2023-05-20T04:50:31.921Z,80.17
2023-05-20T04:51:35.450Z,80.25
2023-05-20T04:52:43.085Z,80.28
2023-05-20T04:53:47.150Z,79.95
2023-05-20T04:54:51.083Z,80.07
2023-05-20T04:55:57.289Z,80.00
2023-05-20T04:57:00.592Z,79.89
2023-05-20T04:58:04.028Z,79.84
2023-05-20T04:59:06.868Z,79.91
2023-05-20T05:00:10.713Z,79.77
2023-05-20T05:01:13.523Z,79.63
2023-05-20T05:02:17.845Z,79.74
2023-05-20T05:03:20.697Z,79.77
2023-05-20T05:04:24.015Z,79.96
2023-05-20T05:05:26.904Z,79.90
2023-05-20T05:06:29.819Z,79.97
2023-05-20T05:07:34.620Z,80.34
2023-05-20T05:08:37.349Z,80.03
2023-05-20T05:09:40.032Z,80.12
2023-05-20T05:10:42.752Z,80.13
2023-05-20T05:11:45.612Z,80.11
2023-05-20T05:12:48.622Z,80.30
2023-05-20T05:13:52.270Z,80.24
2023-05-20T05:14:58.688Z,80.15
2023-05-20T05:16:02.544Z,80.27
2023-05-20T05:17:06.223Z,80.32
2023-05-20T05:18:09.600Z,80.33
2023-05-20T05:19:13.679Z,80.31
2023-05-20T05:20:17.089Z,80.24
2023-05-20T05:21:19.806Z,80.24
2023-05-20T05:22:22.961Z,80.53
2023-05-20T05:23:25.926Z,80.58
2023-05-20T05:24:29.988Z,80.75
2023-05-20T05:25:33.591Z,80.81
2023-05-20T05:26:36.388Z,80.65
2023-05-20T05:27:39.680Z,80.79
2023-05-20T05:28:45.863Z,80.78
2023-05-20T05:29:49.368Z,80.44
2023-05-20T05:30:53.989Z,80.83
2023-05-20T05:31:56.761Z,80.72
2023-05-20T05:32:59.641Z,80.74
2023-05-20T05:34:02.530Z,80.67
2023-05-20T05:35:07.468Z,80.68
2023-05-20T05:36:11.083Z,80.70
2023-05-20T05:37:13.833Z,80.83
2023-05-20T05:38:16.836Z,80.87
2023-05-20T05:39:19.777Z,80.62
2023-05-20T05:40:23.284Z,80.75
2023-05-20T05:41:26.082Z,80.99
2023-05-20T05:42:28.848Z,81.11
2023-05-20T05:43:31.786Z,81.14
2023-05-20T05:44:35.783Z,80.96
2023-05-20T05:45:39.323Z,80.92
2023-05-20T05:46:42.080Z,80.85
2023-05-20T05:47:46.008Z,80.95
2023-05-20T05:48:50.852Z,81.05
2023-05-20T05:49:53.723Z,81.05
2023-05-20T05:50:56.676Z,80.92
2023-05-20T05:51:59.678Z,81.01
2023-05-20T05:53:02.464Z,80.62
2023-05-20T05:54:06.091Z,80.66
2023-05-20T05:55:09.780Z,80.64
2023-05-20T05:56:12.756Z,80.77
2023-05-20T05:57:15.961Z,80.68
2023-05-20T05:58:18.712Z,80.64
2023-05-20T05:59:24.857Z,80.63
2023-05-20T06:00:28.900Z,80.80
2023-05-20T06:01:31.721Z,80.78
2023-05-20T06:02:36.407Z,80.82
2023-05-20T06:03:39.571Z,80.69
2023-05-20T06:04:42.701Z,80.65
2023-05-20T06:05:46.222Z,80.69
2023-05-20T06:06:49.460Z,80.44
2023-05-20T06:07:52.310Z,80.47
2023-05-20T06:08:56.067Z,80.39
2023-05-20T06:09:59.528Z,80.52
2023-05-20T06:11:02.584Z,80.77
2023-05-20T06:12:07.066Z,80.57
2023-05-20T06:13:10.014Z,80.34
2023-05-20T06:14:13.191Z,80.38
2023-05-20T06:15:16.223Z,80.30
2023-05-20T06:16:19.205Z,80.55
2023-05-20T06:17:22.046Z,80.30
2023-05-20T06:18:25.128Z,80.43
2023-05-20T06:19:31.775Z,80.54
2023-05-20T06:20:34.635Z,80.25
2023-05-20T06:21:38.530Z,80.46
2023-05-20T06:22:41.286Z,80.36
2023-05-20T06:23:44.083Z,80.47
2023-05-20T06:24:48.789Z,80.15
2023-05-20T06:25:51.857Z,80.18
2023-05-20T06:26:55.161Z,80.11
2023-05-20T06:27:57.902Z,80.16
2023-05-20T06:29:00.844Z,80.02
2023-05-20T06:30:03.870Z,80.25
2023-05-20T06:31:06.762Z,80.11
2023-05-20T06:32:10.868Z,80.15
2023-05-20T06:33:14.174Z,80.20
2023-05-20T06:34:17.418Z,80.34
2023-05-20T06:35:20.353Z,80.58
2023-05-20T06:36:23.095Z,80.79
2023-05-20T06:37:26.004Z,80.69
2023-05-20T06:38:29.552Z,80.42
2023-05-20T06:39:32.337Z,80.29
2023-05-20T06:40:35.069Z,80.45
2023-05-20T06:41:40.697Z,80.35
2023-05-20T06:42:45.901Z,80.27
2023-05-20T06:43:51.183Z,80.31
2023-05-20T06:45:14.086Z,80.58
2023-05-20T06:46:26.121Z,80.53
2023-05-20T06:47:37.764Z,80.53
2023-05-20T06:48:40.783Z,80.72
2023-05-20T06:49:46.504Z,80.24
2023-05-20T06:50:50.188Z,80.22
2023-05-20T06:51:53.085Z,80.23
2023-05-20T06:52:55.981Z,80.28
2023-05-20T06:53:58.774Z,80.32
2023-05-20T06:55:02.082Z,80.20
2023-05-20T06:56:05.552Z,80.20
2023-05-20T06:57:09.013Z,80.28
2023-05-20T06:58:11.861Z,80.46
2023-05-20T06:59:15.317Z,80.33
2023-05-20T07:00:19.110Z,80.24
2023-05-20T07:01:21.949Z,80.45
2023-05-20T07:02:25.251Z,80.86
2023-05-20T07:03:28.046Z,80.42
2023-05-20T07:04:30.893Z,80.51
2023-05-20T07:05:34.177Z,80.66
2023-05-20T07:06:37.293Z,80.53
2023-05-20T07:07:40.193Z,80.32
2023-05-20T07:08:43.040Z,80.46
2023-05-20T07:09:45.945Z,80.33
2023-05-20T07:10:48.722Z,80.78
2023-05-20T07:11:54.938Z,80.43
2023-05-20T07:12:57.830Z,79.69
2023-05-20T07:14:01.338Z,79.43
2023-05-20T07:15:06.153Z,79.03
2023-05-20T07:16:09.831Z,78.98
2023-05-20T07:17:15.916Z,79.31
2023-05-20T07:18:21.588Z,79.49
2023-05-20T07:19:28.536Z,78.61
2023-05-20T07:20:31.404Z,78.15
2023-05-20T07:21:37.571Z,78.42
2023-05-20T07:23:02.689Z,78.78
2023-05-20T07:24:16.575Z,78.64
2023-05-20T07:25:19.566Z,78.62
2023-05-20T07:26:22.505Z,78.43
2023-05-20T07:27:25.287Z,78.39
2023-05-20T07:28:28.075Z,78.46
2023-05-20T07:29:31.348Z,78.24
2023-05-20T07:30:34.316Z,78.18
2023-05-20T07:31:53.762Z,77.95
2023-05-20T07:32:56.830Z,77.28
2023-05-20T07:33:59.763Z,77.48
2023-05-20T07:35:02.588Z,77.17
2023-05-20T07:36:05.972Z,77.08
2023-05-20T07:37:10.167Z,76.84
2023-05-20T07:38:13.597Z,76.89
2023-05-20T07:39:16.981Z,76.64
2023-05-20T07:40:20.095Z,76.35
2023-05-20T07:41:23.166Z,76.62
2023-05-20T07:42:26.442Z,76.48
2023-05-20T07:43:33.821Z,76.33
2023-05-20T07:44:38.943Z,76.68
2023-05-20T07:45:42.477Z,76.74
2023-05-20T07:46:45.408Z,77.06
2023-05-20T07:47:48.344Z,76.29
2023-05-20T07:48:51.095Z,76.22
2023-05-20T07:49:53.905Z,76.11
2023-05-20T07:50:59.504Z,76.02
2023-05-20T07:52:04.437Z,75.70
2023-05-20T07:53:08.229Z,75.41
2023-05-20T07:54:12.161Z,75.83
2023-05-20T07:55:15.751Z,75.85
2023-05-20T07:56:19.166Z,75.90
2023-05-20T07:57:23.606Z,75.41
2023-05-20T07:58:28.007Z,74.55
2023-05-20T07:59:31.729Z,75.01
2023-05-20T08:00:34.891Z,74.83
2023-05-20T08:01:41.787Z,74.57
2023-05-20T08:02:45.464Z,74.08
2023-05-20T08:03:51.220Z,74.31
2023-05-20T08:04:57.576Z,74.74
2023-05-20T08:06:00.841Z,75.06
2023-05-20T08:07:04.141Z,74.11
2023-05-20T08:08:17.268Z,73.31
2023-05-20T08:09:28.390Z,73.53
2023-05-20T08:10:31.653Z,73.39
2023-05-20T08:11:34.804Z,73.48
2023-05-20T08:12:38.217Z,74.08
2023-05-20T08:13:41.746Z,74.24
2023-05-20T08:14:45.566Z,74.27
2023-05-20T08:15:48.838Z,73.59
2023-05-20T08:16:54.623Z,73.91
2023-05-20T08:17:58.386Z,73.59
2023-05-20T08:19:01.329Z,74.05
2023-05-20T08:20:04.863Z,73.91
2023-05-20T08:21:08.369Z,73.64
2023-05-20T08:22:13.076Z,73.61
2023-05-20T08:23:16.325Z,73.73
2023-05-20T08:24:19.348Z,74.24
2023-05-20T08:25:23.885Z,74.21
2023-05-20T08:26:26.988Z,73.65
2023-05-20T08:27:29.848Z,72.90
2023-05-20T08:28:33.070Z,72.57
2023-05-20T08:29:36.262Z,72.16
2023-05-20T08:30:39.916Z,72.31
2023-05-20T08:31:42.904Z,73.13
2023-05-20T08:32:46.206Z,73.26
2023-05-20T08:33:49.222Z,72.10
2023-05-20T08:34:51.993Z,72.30
2023-05-20T08:35:54.815Z,73.04
2023-05-20T08:36:57.847Z,73.24
2023-05-20T08:38:02.128Z,72.66
2023-05-20T08:39:05.037Z,72.98
2023-05-20T08:40:09.812Z,73.52
2023-05-20T08:41:12.809Z,73.82
2023-05-20T08:42:20.056Z,74.28
2023-05-20T08:43:23.472Z,73.38
2023-05-20T08:44:28.081Z,73.23
2023-05-20T08:45:34.846Z,73.32
2023-05-20T08:46:41.536Z,73.36
2023-05-20T08:47:44.568Z,72.71
2023-05-20T08:48:48.007Z,72.73
2023-05-20T08:49:50.673Z,72.77
2023-05-20T08:50:53.722Z,72.80
2023-05-20T08:51:56.498Z,72.19
2023-05-20T08:52:59.620Z,72.19
2023-05-20T08:54:02.755Z,72.11
2023-05-20T08:55:07.927Z,72.40
2023-05-20T08:56:11.619Z,72.74
2023-05-20T08:57:14.374Z,72.86
2023-05-20T08:58:19.348Z,72.67
2023-05-20T08:59:22.339Z,71.87
2023-05-20T09:00:28.929Z,72.11
2023-05-20T09:01:32.390Z,71.70
2023-05-20T09:02:41.199Z,71.69
2023-05-20T09:03:44.554Z,72.00
2023-05-20T09:04:47.385Z,71.65
2023-05-20T09:05:50.294Z,71.40
2023-05-20T09:06:53.238Z,71.60
2023-05-20T09:08:09.774Z,71.89
2023-05-20T09:09:13.289Z,71.94
2023-05-20T09:10:16.565Z,72.09
2023-05-20T09:11:20.115Z,71.38
2023-05-20T09:12:23.013Z,71.84
2023-05-20T09:13:27.010Z,72.07
2023-05-20T09:14:30.722Z,72.07
2023-05-20T09:15:34.448Z,71.86
2023-05-20T09:16:39.734Z,71.32
2023-05-20T09:17:42.574Z,70.82
2023-05-20T09:18:46.344Z,71.20
2023-05-20T09:19:53.217Z,71.67
2023-05-20T09:20:56.612Z,71.53
2023-05-20T09:21:59.499Z,70.50
2023-05-20T09:23:03.033Z,70.56
2023-05-20T09:24:05.934Z,70.48
2023-05-20T09:25:09.518Z,70.17
2023-05-20T09:26:12.578Z,69.99
2023-05-20T09:27:16.080Z,70.22
2023-05-20T09:28:24.187Z,70.60
2023-05-20T09:29:27.038Z,69.88
2023-05-20T09:30:29.772Z,70.05
2023-05-20T09:31:34.171Z,70.04
2023-05-20T09:32:38.358Z,69.99
2023-05-20T09:33:41.429Z,69.55
2023-05-20T09:34:46.526Z,69.37
2023-05-20T09:35:49.475Z,70.07
2023-05-20T09:36:53.010Z,70.38
2023-05-20T09:37:56.884Z,68.93
2023-05-20T09:39:03.256Z,69.06
2023-05-20T09:40:09.877Z,69.27
2023-05-20T09:41:13.786Z,69.37
2023-05-20T09:42:21.093Z,68.84
2023-05-20T09:43:23.843Z,68.93
2023-05-20T09:44:28.893Z,69.44
2023-05-20T09:45:31.673Z,69.20
2023-05-20T09:46:34.777Z,68.79
2023-05-20T09:47:41.626Z,68.51
2023-05-20T09:48:44.728Z,67.78
2023-05-20T09:49:48.181Z,67.81
2023-05-20T09:50:51.873Z,68.18
2023-05-20T09:51:54.714Z,67.90
2023-05-20T09:53:01.839Z,68.27
2023-05-20T09:54:04.943Z,68.44
2023-05-20T09:55:10.410Z,68.09
2023-05-20T09:56:13.494Z,68.24
2023-05-20T09:57:16.358Z,68.58
2023-05-20T09:58:20.417Z,69.10
2023-05-20T09:59:23.687Z,68.92
2023-05-20T10:00:26.634Z,68.17
2023-05-20T10:01:29.637Z,68.07
2023-05-20T10:02:33.780Z,68.16
2023-05-20T10:03:37.040Z,68.86
2023-05-20T10:04:45.190Z,69.06
2023-05-20T10:06:10.795Z,69.12
2023-05-20T10:07:16.320Z,68.67
2023-05-20T10:08:28.068Z,68.47
2023-05-20T10:09:42.999Z,68.58
2023-05-20T10:10:45.960Z,68.89
2023-05-20T10:11:57.514Z,69.33
2023-05-20T10:13:00.302Z,69.39
2023-05-20T10:14:21.962Z,68.93
2023-05-20T10:15:43.605Z,69.09
2023-05-20T10:17:09.067Z,69.51
2023-05-20T10:18:14.670Z,69.20
2023-05-20T10:19:29.152Z,69.34
2023-05-20T10:20:32.062Z,69.76
2023-05-20T10:21:35.137Z,69.67
2023-05-20T10:22:38.008Z,70.21
2023-05-20T10:23:40.868Z,70.10
2023-05-20T10:24:44.324Z,70.64
2023-05-20T10:25:53.549Z,70.89
2023-05-20T10:26:57.658Z,70.93
2023-05-20T10:28:05.196Z,71.05
2023-05-20T10:29:18.155Z,70.92
2023-05-20T10:30:22.422Z,71.32
2023-05-20T10:31:25.812Z,70.93
2023-05-20T10:32:28.957Z,71.65
2023-05-20T10:33:41.343Z,71.38
2023-05-20T10:34:45.289Z,71.58
2023-05-20T10:35:50.568Z,71.51
2023-05-20T10:36:56.006Z,71.46
2023-05-20T10:38:10.420Z,71.70
2023-05-20T10:39:19.232Z,71.96
2023-05-20T10:40:22.736Z,72.17
2023-05-20T10:41:27.101Z,72.25
2023-05-20T10:42:32.518Z,72.44
2023-05-20T10:43:35.429Z,72.35
2023-05-20T10:44:45.136Z,72.29
2023-05-20T10:45:49.437Z,71.86
2023-05-20T10:47:23.606Z,72.22
2023-05-20T10:48:29.204Z,72.42
2023-05-20T10:49:34.039Z,72.47
2023-05-20T10:50:37.663Z,72.39
2023-05-20T10:51:41.918Z,72.34
2023-05-20T10:52:44.711Z,72.42
2023-05-20T10:53:47.742Z,72.72
2023-05-20T10:54:53.484Z,72.96
2023-05-20T10:55:56.666Z,73.06
2023-05-20T10:56:59.399Z,72.66
2023-05-20T10:58:02.075Z,72.86
2023-05-20T10:59:04.785Z,72.98
2023-05-20T11:00:10.806Z,73.29
2023-05-20T11:01:14.229Z,73.30
2023-05-20T11:02:17.321Z,73.41
2023-05-20T11:03:22.116Z,73.06
2023-05-20T11:04:24.952Z,73.13
2023-05-20T11:05:28.507Z,73.31
2023-05-20T11:06:31.651Z,73.21
2023-05-20T11:07:34.496Z,73.04
2023-05-20T11:08:37.236Z,73.71
2023-05-20T11:09:40.002Z,73.47
2023-05-20T11:10:43.444Z,73.19
2023-05-20T11:11:46.708Z,73.31
2023-05-20T11:12:49.582Z,73.05
2023-05-20T11:13:53.093Z,73.33
2023-05-20T11:14:56.043Z,73.79
2023-05-20T11:15:59.218Z,73.56
2023-05-20T11:17:02.102Z,72.93
2023-05-20T11:18:05.002Z,73.01
2023-05-20T11:19:08.769Z,72.86
2023-05-20T11:20:14.498Z,71.99
2023-05-20T11:21:18.133Z,70.79
2023-05-20T11:22:20.966Z,71.34
2023-05-20T11:23:23.796Z,70.72
2023-05-20T11:24:27.348Z,70.17
2023-05-20T11:25:30.177Z,70.09
2023-05-20T11:26:33.419Z,69.70
2023-05-20T11:27:39.132Z,69.96
2023-05-20T11:28:42.033Z,69.79
2023-05-20T11:29:45.005Z,69.31
2023-05-20T11:30:48.448Z,68.50
2023-05-20T11:31:52.198Z,68.76
2023-05-20T11:33:02.115Z,68.68
2023-05-20T11:34:04.894Z,68.49
2023-05-20T11:35:08.118Z,68.19
2023-05-20T11:36:26.364Z,68.27
2023-05-20T11:37:30.066Z,67.98
2023-05-20T11:38:32.832Z,66.69
2023-05-20T11:39:35.578Z,66.51
2023-05-20T11:40:50.550Z,66.46
2023-05-20T11:41:54.178Z,66.93
2023-05-20T11:43:03.971Z,65.10
2023-05-20T11:44:09.642Z,65.12
2023-05-20T11:45:13.707Z,64.62
2023-05-20T11:46:16.561Z,65.33
2023-05-20T11:47:24.737Z,65.00
2023-05-20T11:48:27.675Z,64.46
2023-05-20T11:49:31.007Z,64.01
2023-05-20T11:50:35.992Z,64.24
2023-05-20T11:51:39.712Z,64.26
2023-05-20T11:52:42.456Z,63.27
2023-05-20T11:53:46.909Z,62.53
2023-05-20T11:54:53.525Z,60.71
2023-05-20T11:55:57.609Z,61.17
2023-05-20T11:57:00.624Z,61.22
2023-05-20T11:58:03.461Z,61.47
2023-05-20T11:59:06.680Z,61.54
2023-05-20T12:00:10.848Z,61.90
2023-05-20T12:01:21.804Z,62.13
2023-05-20T12:02:26.056Z,61.94
2023-05-20T12:03:28.981Z,61.65
2023-05-20T12:04:31.889Z,61.09
2023-05-20T12:05:34.877Z,61.22
2023-05-20T12:06:37.687Z,61.46
2023-05-20T12:07:40.471Z,61.80
2023-05-20T12:08:43.221Z,61.00
2023-05-20T12:09:45.962Z,60.57
2023-05-20T12:10:49.104Z,60.33
2023-05-20T12:11:51.996Z,60.66
2023-05-20T12:12:54.738Z,61.14
2023-05-20T12:13:57.516Z,61.06
2023-05-20T12:15:00.275Z,61.40
2023-05-20T12:16:04.240Z,61.55
2023-05-20T12:17:07.464Z,61.22
2023-05-20T12:18:11.350Z,61.46
2023-05-20T12:19:14.228Z,61.97
2023-05-20T12:20:17.952Z,62.34
2023-05-20T12:21:20.939Z,62.51
2023-05-20T12:22:23.638Z,62.59
2023-05-20T12:23:26.621Z,62.81
2023-05-20T12:24:29.323Z,62.57
2023-05-20T12:25:32.201Z,62.66
2023-05-20T12:26:35.624Z,63.14
2023-05-20T12:27:38.885Z,62.62
2023-05-20T12:28:41.643Z,62.21
2023-05-20T12:29:44.401Z,62.45
2023-05-20T12:30:47.208Z,62.55
2023-05-20T12:31:51.033Z,62.68
2023-05-20T12:32:54.106Z,63.04
2023-05-20T12:33:56.949Z,63.21
2023-05-20T12:34:59.864Z,62.94
2023-05-20T12:36:02.717Z,63.22
2023-05-20T12:37:06.144Z,63.21
2023-05-20T12:38:09.346Z,62.67
2023-05-20T12:39:12.497Z,62.92
2023-05-20T12:40:15.284Z,63.27
2023-05-20T12:41:18.032Z,63.71
2023-05-20T12:42:20.799Z,63.94
2023-05-20T12:43:23.550Z,63.91
2023-05-20T12:44:26.718Z,64.13
2023-05-20T12:45:29.505Z,64.17
2023-05-20T12:46:32.284Z,64.17
2023-05-20T12:47:35.559Z,64.17
2023-05-20T12:48:39.950Z,64.46
2023-05-20T12:49:43.922Z,64.85
2023-05-20T12:50:46.630Z,64.98
2023-05-20T12:51:49.769Z,64.78
2023-05-20T12:52:53.209Z,64.64
2023-05-20T12:53:56.246Z,64.94
2023-05-20T12:54:58.991Z,64.77
2023-05-20T12:56:01.817Z,64.82
2023-05-20T12:57:05.789Z,64.88
2023-05-20T12:58:08.953Z,64.67
2023-05-20T12:59:11.636Z,64.48
2023-05-20T13:00:14.650Z,64.98
2023-05-20T13:01:17.423Z,65.14
2023-05-20T13:02:20.866Z,64.94
2023-05-20T13:03:23.911Z,64.77
2023-05-20T13:04:26.712Z,64.72
2023-05-20T13:05:29.456Z,64.59
2023-05-20T13:06:32.507Z,64.77
2023-05-20T13:07:35.256Z,65.14
2023-05-20T13:08:38.251Z,65.06
2023-05-20T13:09:41.036Z,65.21
2023-05-20T13:10:43.902Z,65.26
2023-05-20T13:11:46.607Z,64.94
2023-05-20T13:12:49.400Z,65.28
2023-05-20T13:13:54.074Z,65.18
2023-05-20T13:14:56.821Z,65.74
2023-05-20T13:15:59.488Z,65.97
2023-05-20T13:17:02.445Z,65.94
2023-05-20T13:18:07.162Z,65.79
2023-05-20T13:19:10.106Z,65.72
2023-05-20T13:20:13.160Z,65.74
2023-05-20T13:21:16.551Z,65.64
2023-05-20T13:22:19.542Z,65.49
2023-05-20T13:23:22.320Z,65.42
2023-05-20T13:24:25.881Z,65.43
2023-05-20T13:25:29.126Z,65.44
2023-05-20T13:26:31.854Z,65.22
2023-05-20T13:27:34.587Z,65.42
2023-05-20T13:28:37.301Z,65.32
2023-05-20T13:29:40.135Z,65.44
2023-05-20T13:30:42.867Z,65.19
2023-05-20T13:31:46.864Z,65.68
2023-05-20T13:32:49.570Z,65.60
2023-05-20T13:33:53.453Z,65.22
2023-05-20T13:34:57.100Z,65.14
2023-05-20T13:36:00.008Z,65.06
2023-05-20T13:37:02.742Z,64.72
2023-05-20T13:38:05.587Z,64.42
2023-05-20T13:39:08.436Z,64.05
2023-05-20T13:40:11.693Z,63.47
2023-05-20T13:41:14.533Z,62.83
2023-05-20T13:42:17.345Z,60.30
2023-05-20T13:43:20.058Z,60.40
2023-05-20T13:44:22.807Z,61.24
2023-05-20T13:45:25.753Z,61.49